Weather reports worldwide

Advertisment
Xinzo De Limia, Spain (8050): temperature & dewpoint: 28.05.2020 22:00:00 - 03.06.2020 22:00:00 (CEST)Xinzo De Limia, Spain (8050): wind speed & gusts: 28.05.2020 22:00:00 - 03.06.2020 22:00:00 (CEST)Xinzo De Limia, Spain (8050): wind direction: 28.05.2020 22:00:00 - 03.06.2020 22:00:00 (CEST)Xinzo De Limia, Spain (8050): precipitation: 28.05.2020 22:00:00 - 03.06.2020 22:00:00 (CEST)
Date & Time tt [°C] td [°C] ff [km/h] ff [kn] fx [km/h] fx [kn] dd rr [mm]
03.06.2020 22:00:00 - - - - - - - -
03.06.2020 21:00:00 17,3 11,3 16 9 32 17 WNW 0,0
03.06.2020 20:00:00 19,0 11,3 17 9 30 16 WNW -
03.06.2020 19:00:00 20,8 11,7 15 8 30 16 W 0,0
03.06.2020 18:00:00 20,8 12,0 19 10 32 17 NW 0,0
03.06.2020 17:00:00 21,6 12,4 16 9 66 35 WNW 0,0
03.06.2020 16:00:00 21,5 12,8 16 8 31 17 WNW 0,0
03.06.2020 15:00:00 22,0 13,4 15 8 26 14 WNW 0,0
03.06.2020 14:00:00 21,5 13,9 11 6 26 14 WNW -
03.06.2020 13:00:00 20,8 13,9 13 7 22 12 NNW 0,0
03.06.2020 12:00:00 19,9 16,0 7 4 13 7 W 0,0
03.06.2020 11:00:00 18,0 16,6 6 3 - - WSW -
03.06.2020 10:00:00 - - - - - - - -
03.06.2020 09:00:00 - - - - - - - -
03.06.2020 08:00:00 - - - - - - - -
03.06.2020 07:00:00 - - - - - - - -
03.06.2020 06:00:00 - - - - - - - -
03.06.2020 05:00:00 - - - - - - - -
03.06.2020 04:00:00 - - - - - - - -
03.06.2020 03:00:00 - - - - - - - -
03.06.2020 02:00:00 - - - - - - - -
03.06.2020 01:00:00 - - - - - - - -
03.06.2020 00:00:00 - - - - - - - -
02.06.2020 23:00:00 - - - - - - - -
02.06.2020 22:00:00 - - - - - - - -
02.06.2020 21:00:00 - - - - - - - -
02.06.2020 20:00:00 23,4 14,4 9 5 24 13 WSW -
02.06.2020 19:00:00 24,5 11,8 9 5 19 10 NNW 0,0
02.06.2020 18:00:00 26,9 12,5 14 8 20 11 N 0,0
02.06.2020 17:00:00 26,0 12,8 13 7 28 15 W 0,0
02.06.2020 16:00:00 26,2 13,0 13 7 25 13 NW 0,0
02.06.2020 15:00:00 25,2 12,4 13 7 19 10 NW 0,0
02.06.2020 14:00:00 26,3 13,1 4 2 19 11 ESE -
02.06.2020 13:00:00 23,7 11,7 9 5 15 8 W 0,0
02.06.2020 12:00:00 24,4 12,3 1 1 10 6 NNW 0,0
02.06.2020 11:00:00 23,0 15,6 2 1 8 4 SSE 0,0
02.06.2020 10:00:00 18,2 16,9 2 1 6 3 N 0,0
02.06.2020 09:00:00 14,7 13,5 2 1 6 3 SW 0,0
02.06.2020 08:00:00 14,0 12,7 3 1 9 5 W -
02.06.2020 07:00:00 - - 0 0 12 6 N 0,0
02.06.2020 06:00:00 13,3 11,9 2 1 6 3 WSW 0,0
02.06.2020 05:00:00 13,2 11,6 1 0 7 4 SSW 0,0
02.06.2020 04:00:00 13,9 12,3 0 0 0 0 N 0,0
02.06.2020 03:00:00 14,4 12,6 0 0 6 3 N 0,0
02.06.2020 02:00:00 15,1 13,0 2 1 5 3 S -
02.06.2020 01:00:00 16,0 13,5 0 0 0 0 N 0,0
02.06.2020 00:00:00 17,3 14,4 2 1 11 6 WNW 0,0
01.06.2020 23:00:00 18,2 14,9 6 3 16 9 W 0,0
01.06.2020 22:00:00 19,2 14,6 3 2 22 12 WSW 0,0
01.06.2020 21:00:00 20,5 14,8 12 7 22 12 WNW 0,0
01.06.2020 20:00:00 23,9 11,9 6 4 17 9 SSW -
01.06.2020 19:00:00 25,6 11,0 10 5 26 14 SSE 0,0
01.06.2020 18:00:00 25,8 10,8 12 6 29 16 SE 0,0
01.06.2020 17:00:00 26,3 11,7 14 7 29 16 SSE 0,0
01.06.2020 16:00:00 25,8 11,2 14 8 27 15 SE 0,0
01.06.2020 15:00:00 25,7 11,8 13 7 24 13 SSE 0,0
01.06.2020 14:00:00 24,1 12,1 14 7 28 15 SE -
01.06.2020 13:00:00 23,7 12,0 14 8 27 14 SE 0,0
01.06.2020 12:00:00 22,3 11,1 11 6 24 13 SE 0,0
01.06.2020 11:00:00 21,2 12,6 8 4 17 9 ESE 0,0
01.06.2020 10:00:00 17,0 14,8 2 1 8 4 NE 0,0
01.06.2020 09:00:00 13,2 11,9 3 2 8 4 SSE 0,0
01.06.2020 08:00:00 11,4 10,2 0 0 0 0 N -
01.06.2020 07:00:00 10,5 9,0 0 0 5 3 N 0,0
01.06.2020 06:00:00 10,5 8,9 3 2 10 5 WSW 0,0
01.06.2020 05:00:00 10,8 8,9 4 2 5 3 NE 0,0
01.06.2020 04:00:00 12,1 9,4 1 1 9 5 NNE 0,0
01.06.2020 03:00:00 13,6 9,8 3 2 11 6 SE 0,0
01.06.2020 02:00:00 15,5 10,6 6 3 14 7 SE -
01.06.2020 01:00:00 16,5 11,2 6 3 31 17 S 0,0
01.06.2020 00:00:00 17,1 11,6 12 7 27 15 ESE 0,0
31.05.2020 23:00:00 18,0 12,4 16 9 31 17 SE 0,0
31.05.2020 22:00:00 18,5 13,2 7 4 13 7 SE 0,0
31.05.2020 21:00:00 - - - - - - - -
31.05.2020 20:00:00 - - - - - - - -
31.05.2020 19:00:00 22,2 13,9 3 2 8 5 SSW 0,0
31.05.2020 18:00:00 23,1 13,6 6 3 11 6 W 0,0
31.05.2020 17:00:00 24,0 11,3 8 4 19 10 NNW 0,0
31.05.2020 16:00:00 - - - - - - - -
31.05.2020 15:00:00 - - - - - - - -
31.05.2020 14:00:00 23,8 10,2 12 7 20 11 N -
31.05.2020 13:00:00 25,9 12,3 8 4 16 9 N 0,0
31.05.2020 12:00:00 24,6 13,5 4 2 12 6 NW 0,0
31.05.2020 11:00:00 22,5 16,7 3 1 9 5 E 0,0
31.05.2020 10:00:00 17,8 16,5 0 0 5 3 N 0,0
31.05.2020 09:00:00 14,8 13,6 3 2 8 4 S 0,0
31.05.2020 08:00:00 13,1 11,8 0 0 0 0 N -
31.05.2020 07:00:00 12,3 11,0 0 0 0 0 N 0,0
31.05.2020 06:00:00 12,8 11,3 0 0 0 0 N 0,0
31.05.2020 05:00:00 13,5 11,9 0 0 7 4 N 0,0
31.05.2020 04:00:00 15,2 13,6 0 0 6 3 N 0,0
31.05.2020 03:00:00 15,4 13,6 4 2 9 5 S 0,0
31.05.2020 02:00:00 15,9 13,4 3 2 9 5 SSW -
31.05.2020 01:00:00 16,7 13,7 0 0 2 1 N 0,0
31.05.2020 00:00:00 17,6 12,5 2 1 7 4 E 0,0
30.05.2020 23:00:00 20,2 12,4 2 1 8 4 S 0,0
30.05.2020 22:00:00 22,0 13,4 8 4 13 7 SE 0,0
30.05.2020 21:00:00 22,8 13,3 0 0 11 6 WSW 0,0
30.05.2020 20:00:00 24,0 12,0 4 2 14 7 SW -
30.05.2020 19:00:00 26,9 10,2 5 3 18 10 NW 0,0
30.05.2020 18:00:00 29,0 9,2 11 6 19 10 WNW 0,0
30.05.2020 17:00:00 30,0 9,6 11 6 24 13 N 0,0
30.05.2020 16:00:00 30,3 8,1 13 7 21 11 N 0,0
30.05.2020 15:00:00 29,8 8,8 10 5 18 10 N 0,0
30.05.2020 14:00:00 29,2 5,3 6 3 11 6 WNW -
30.05.2020 13:00:00 28,1 9,4 2 1 12 6 E 0,0
30.05.2020 12:00:00 26,3 11,2 6 4 12 7 ESE 0,0
30.05.2020 11:00:00 21,7 11,4 3 1 6 3 W 0,0
30.05.2020 10:00:00 18,2 12,6 1 1 8 4 SW 0,0
30.05.2020 09:00:00 13,5 12,1 0 0 0 0 N 0,0
30.05.2020 08:00:00 9,4 8,1 0 0 6 4 N -
30.05.2020 07:00:00 8,6 7,4 3 2 9 5 SSW 0,0
30.05.2020 06:00:00 8,5 7,3 0 0 6 3 WSW 0,0
30.05.2020 05:00:00 9,4 7,8 0 0 4 2 NNE 0,0
30.05.2020 04:00:00 - - 0 0 6 3 S 0,0
30.05.2020 03:00:00 12,5 9,9 0 0 5 3 N 0,0
30.05.2020 02:00:00 14,9 11,7 1 1 10 5 SW -
30.05.2020 01:00:00 16,2 12,3 8 4 10 6 SW 0,0
30.05.2020 00:00:00 18,1 12,7 5 3 9 5 WSW 0,0
29.05.2020 23:00:00 20,2 13,0 4 2 12 6 WSW 0,0
29.05.2020 22:00:00 23,0 11,7 9 5 18 10 NNW 0,0
29.05.2020 21:00:00 26,7 12,3 14 8 23 12 NNW 0,0
29.05.2020 20:00:00 29,3 11,8 11 6 19 11 NNW -
29.05.2020 19:00:00 29,9 11,9 10 5 18 10 N 0,0
29.05.2020 18:00:00 27,1 11,6 8 4 24 13 NW 0,0
29.05.2020 17:00:00 29,8 10,9 15 8 32 17 NNW 0,0
29.05.2020 16:00:00 30,3 11,3 15 8 24 13 NNW 0,0
29.05.2020 15:00:00 30,0 11,0 14 7 29 15 NNW 0,0
29.05.2020 14:00:00 29,4 12,7 11 6 23 12 NNW -
29.05.2020 13:00:00 28,6 13,3 12 7 25 13 NNW 0,0
29.05.2020 12:00:00 27,6 14,2 9 5 14 8 N 0,0
29.05.2020 11:00:00 24,4 15,9 3 2 8 5 NNW 0,0
29.05.2020 10:00:00 21,1 16,5 0 0 0 0 N 0,0
29.05.2020 09:00:00 18,2 16,9 0 0 0 0 N 0,0
29.05.2020 08:00:00 15,0 13,8 0 0 0 0 N -
29.05.2020 07:00:00 13,2 11,8 0 0 0 0 N 0,0
29.05.2020 06:00:00 14,7 13,1 0 0 4 2 SSW 0,0
29.05.2020 05:00:00 15,7 13,6 1 0 4 2 W 0,0
29.05.2020 04:00:00 16,8 14,2 1 1 6 4 S 0,0
29.05.2020 03:00:00 17,1 14,5 0 0 6 3 N 0,0
29.05.2020 02:00:00 17,3 14,4 4 2 8 5 SSW -
29.05.2020 01:00:00 18,2 14,9 5 3 10 5 SW 0,0
29.05.2020 00:00:00 19,1 15,3 5 3 8 5 WSW 0,0
28.05.2020 23:00:00 20,7 15,9 3 1 6 3 SW 0,0
28.05.2020 22:00:00 22,2 15,3 3 2 11 6 SW 0,0

tt = temperature
td = dewpoint
ff = wind speed
fx = gusts
dd = wind direction
rr = precipitation

Next stations